sensor_id;sensor_type;location;lat;lon;timestamp;pressure;altitude;pressure_sealevel;temperature;humidity
63306;BME280;50735;52.060;1.248;2023-01-29T00:00:25;102770.95;;;5.41;50.62
63306;BME280;50735;52.060;1.248;2023-01-29T00:02:51;102759.16;;;5.38;50.58
63306;BME280;50735;52.060;1.248;2023-01-29T00:05:18;102753.53;;;5.29;50.73
63306;BME280;50735;52.060;1.248;2023-01-29T00:07:44;102749.25;;;5.32;50.77
63306;BME280;50735;52.060;1.248;2023-01-29T00:10:11;102748.46;;;5.36;50.71
63306;BME280;50735;52.060;1.248;2023-01-29T00:12:39;102749.33;;;5.14;50.76
63306;BME280;50735;52.060;1.248;2023-01-29T00:15:06;102748.07;;;5.18;50.75
63306;BME280;50735;52.060;1.248;2023-01-29T00:17:33;102750.85;;;5.17;50.79
63306;BME280;50735;52.060;1.248;2023-01-29T00:20:00;102749.91;;;5.16;50.87
63306;BME280;50735;52.060;1.248;2023-01-29T00:22:29;102749.42;;;5.38;50.97
63306;BME280;50735;52.060;1.248;2023-01-29T00:24:56;102751.08;;;5.41;50.87
63306;BME280;50735;52.060;1.248;2023-01-29T00:27:22;102751.68;;;5.41;50.83
63306;BME280;50735;52.060;1.248;2023-01-29T00:29:48;102749.77;;;5.38;51.01
63306;BME280;50735;52.060;1.248;2023-01-29T00:32:15;102747.90;;;5.41;50.98
63306;BME280;50735;52.060;1.248;2023-01-29T00:34:41;102742.90;;;5.01;50.94
63306;BME280;50735;52.060;1.248;2023-01-29T00:37:08;102744.21;;;5.13;51.06
63306;BME280;50735;52.060;1.248;2023-01-29T00:39:36;102743.57;;;5.28;51.03
63306;BME280;50735;52.060;1.248;2023-01-29T00:42:02;102744.92;;;5.27;51.11
63306;BME280;50735;52.060;1.248;2023-01-29T00:44:29;102744.35;;;5.27;51.17
63306;BME280;50735;52.060;1.248;2023-01-29T00:46:56;102751.25;;;5.08;51.07
63306;BME280;50735;52.060;1.248;2023-01-29T00:49:22;102750.82;;;5.32;51.16
63306;BME280;50735;52.060;1.248;2023-01-29T00:51:49;102751.21;;;5.11;50.99
63306;BME280;50735;52.060;1.248;2023-01-29T00:54:16;102755.54;;;5.10;51.11
63306;BME280;50735;52.060;1.248;2023-01-29T00:56:43;102758.44;;;5.34;51.18
63306;BME280;50735;52.060;1.248;2023-01-29T00:59:10;102756.96;;;5.55;51.21
63306;BME280;50735;52.060;1.248;2023-01-29T01:01:36;102748.89;;;5.28;51.06
63306;BME280;50735;52.060;1.248;2023-01-29T01:04:03;102746.30;;;5.06;51.14
63306;BME280;50735;52.060;1.248;2023-01-29T01:06:30;102742.85;;;5.06;51.07
63306;BME280;50735;52.060;1.248;2023-01-29T01:08:57;102735.10;;;5.28;51.08
63306;BME280;50735;52.060;1.248;2023-01-29T01:11:24;102731.92;;;5.30;51.19
63306;BME280;50735;52.060;1.248;2023-01-29T01:13:50;102723.30;;;5.32;51.28
63306;BME280;50735;52.060;1.248;2023-01-29T01:16:17;102719.20;;;5.37;51.10
63306;BME280;50735;52.060;1.248;2023-01-29T01:18:44;102712.23;;;4.98;51.14
63306;BME280;50735;52.060;1.248;2023-01-29T01:21:11;102704.84;;;5.01;51.01
63306;BME280;50735;52.060;1.248;2023-01-29T01:23:39;102699.53;;;5.31;51.01
63306;BME280;50735;52.060;1.248;2023-01-29T01:26:08;102693.53;;;4.85;51.05
63306;BME280;50735;52.060;1.248;2023-01-29T01:28:35;102689.35;;;5.24;50.98
63306;BME280;50735;52.060;1.248;2023-01-29T01:31:07;102687.84;;;4.87;51.13
63306;BME280;50735;52.060;1.248;2023-01-29T01:33:34;102681.23;;;4.68;51.16
63306;BME280;50735;52.060;1.248;2023-01-29T01:36:01;102674.47;;;5.09;51.25
63306;BME280;50735;52.060;1.248;2023-01-29T01:38:28;102672.28;;;4.95;51.18
63306;BME280;50735;52.060;1.248;2023-01-29T01:40:55;102666.91;;;5.09;51.18
63306;BME280;50735;52.060;1.248;2023-01-29T01:43:21;102671.00;;;5.09;51.20
63306;BME280;50735;52.060;1.248;2023-01-29T01:45:48;102675.97;;;5.14;51.19
63306;BME280;50735;52.060;1.248;2023-01-29T01:48:17;102679.09;;;4.80;51.13
63306;BME280;50735;52.060;1.248;2023-01-29T01:50:48;102685.01;;;5.20;51.26
63306;BME280;50735;52.060;1.248;2023-01-29T01:53:21;102684.66;;;5.23;51.35
63306;BME280;50735;52.060;1.248;2023-01-29T01:55:53;102685.01;;;5.03;51.37
63306;BME280;50735;52.060;1.248;2023-01-29T01:58:24;102687.18;;;5.05;51.33
63306;BME280;50735;52.060;1.248;2023-01-29T02:00:53;102685.40;;;5.08;51.14
63306;BME280;50735;52.060;1.248;2023-01-29T02:03:20;102688.67;;;5.01;51.07
63306;BME280;50735;52.060;1.248;2023-01-29T02:05:49;102690.48;;;5.12;51.22
63306;BME280;50735;52.060;1.248;2023-01-29T02:08:22;102691.90;;;5.10;51.20
63306;BME280;50735;52.060;1.248;2023-01-29T02:10:50;102693.91;;;4.72;51.39
63306;BME280;50735;52.060;1.248;2023-01-29T02:13:18;102691.49;;;4.77;51.78
63306;BME280;50735;52.060;1.248;2023-01-29T02:15:46;102686.58;;;4.79;51.70
63306;BME280;50735;52.060;1.248;2023-01-29T02:18:13;102689.19;;;4.44;52.08
63306;BME280;50735;52.060;1.248;2023-01-29T02:20:43;102693.75;;;4.66;52.04
63306;BME280;50735;52.060;1.248;2023-01-29T02:25:44;102699.95;;;5.04;52.11
63306;BME280;50735;52.060;1.248;2023-01-29T02:28:20;102697.54;;;4.69;52.11
63306;BME280;50735;52.060;1.248;2023-01-29T02:30:59;102693.90;;;4.66;52.22
63306;BME280;50735;52.060;1.248;2023-01-29T02:33:38;102694.93;;;4.77;52.11
63306;BME280;50735;52.060;1.248;2023-01-29T02:36:13;102696.70;;;5.05;52.02
63306;BME280;50735;52.060;1.248;2023-01-29T02:38:49;102695.47;;;4.92;51.82
63306;BME280;50735;52.060;1.248;2023-01-29T02:41:25;102690.75;;;4.89;51.80
63306;BME280;50735;52.060;1.248;2023-01-29T02:43:58;102693.28;;;4.67;51.91
63306;BME280;50735;52.060;1.248;2023-01-29T02:46:31;102690.44;;;4.91;51.92
63306;BME280;50735;52.060;1.248;2023-01-29T02:49:05;102693.93;;;4.83;51.98
63306;BME280;50735;52.060;1.248;2023-01-29T02:51:37;102695.68;;;4.82;51.90
63306;BME280;50735;52.060;1.248;2023-01-29T02:54:13;102692.48;;;4.82;51.89
63306;BME280;50735;52.060;1.248;2023-01-29T02:56:48;102689.16;;;4.72;52.11
63306;BME280;50735;52.060;1.248;2023-01-29T02:59:21;102686.19;;;4.59;52.44
63306;BME280;50735;52.060;1.248;2023-01-29T03:01:53;102683.82;;;4.52;52.39
63306;BME280;50735;52.060;1.248;2023-01-29T03:04:26;102683.13;;;4.46;53.04
63306;BME280;50735;52.060;1.248;2023-01-29T03:06:58;102681.79;;;4.40;52.77
63306;BME280;50735;52.060;1.248;2023-01-29T03:09:31;102683.86;;;4.63;52.64
63306;BME280;50735;52.060;1.248;2023-01-29T03:12:12;102682.24;;;4.74;52.43
63306;BME280;50735;52.060;1.248;2023-01-29T03:14:41;102678.87;;;4.66;52.60
63306;BME280;50735;52.060;1.248;2023-01-29T03:17:08;102678.43;;;4.45;52.57
63306;BME280;50735;52.060;1.248;2023-01-29T03:19:38;102678.21;;;4.46;52.67
63306;BME280;50735;52.060;1.248;2023-01-29T03:22:09;102677.62;;;4.43;52.66
63306;BME280;50735;52.060;1.248;2023-01-29T03:24:41;102675.98;;;4.63;52.63
63306;BME280;50735;52.060;1.248;2023-01-29T03:27:11;102677.11;;;4.56;52.76
63306;BME280;50735;52.060;1.248;2023-01-29T03:29:41;102673.85;;;4.62;52.65
63306;BME280;50735;52.060;1.248;2023-01-29T03:32:10;102671.54;;;4.49;52.61
63306;BME280;50735;52.060;1.248;2023-01-29T03:34:40;102669.97;;;4.46;52.62
63306;BME280;50735;52.060;1.248;2023-01-29T03:37:14;102667.49;;;4.09;53.10
63306;BME280;50735;52.060;1.248;2023-01-29T03:39:43;102666.84;;;4.30;53.14
63306;BME280;50735;52.060;1.248;2023-01-29T03:42:14;102659.11;;;4.19;53.25
63306;BME280;50735;52.060;1.248;2023-01-29T03:44:52;102658.16;;;4.21;53.25
63306;BME280;50735;52.060;1.248;2023-01-29T03:47:22;102658.05;;;4.27;53.55
63306;BME280;50735;52.060;1.248;2023-01-29T03:49:56;102654.99;;;4.11;53.54
63306;BME280;50735;52.060;1.248;2023-01-29T03:52:29;102651.14;;;4.12;53.95
63306;BME280;50735;52.060;1.248;2023-01-29T03:54:59;102648.82;;;3.84;54.38
63306;BME280;50735;52.060;1.248;2023-01-29T03:57:34;102644.08;;;4.07;54.11
63306;BME280;50735;52.060;1.248;2023-01-29T04:00:09;102641.72;;;3.94;54.32
63306;BME280;50735;52.060;1.248;2023-01-29T04:02:46;102635.06;;;3.79;54.41
63306;BME280;50735;52.060;1.248;2023-01-29T04:05:18;102635.86;;;3.90;54.50
63306;BME280;50735;52.060;1.248;2023-01-29T04:07:47;102632.88;;;3.70;55.01
63306;BME280;50735;52.060;1.248;2023-01-29T04:10:21;102631.03;;;3.65;55.38
63306;BME280;50735;52.060;1.248;2023-01-29T04:12:53;102628.39;;;3.44;55.52
63306;BME280;50735;52.060;1.248;2023-01-29T04:15:25;102628.36;;;3.84;55.54
63306;BME280;50735;52.060;1.248;2023-01-29T04:17:55;102626.07;;;3.66;55.44
63306;BME280;50735;52.060;1.248;2023-01-29T04:20:23;102622.32;;;3.82;55.72
63306;BME280;50735;52.060;1.248;2023-01-29T04:22:51;102619.48;;;3.38;56.07
63306;BME280;50735;52.060;1.248;2023-01-29T04:25:21;102619.23;;;3.37;56.17
63306;BME280;50735;52.060;1.248;2023-01-29T04:27:56;102619.50;;;3.62;56.52
63306;BME280;50735;52.060;1.248;2023-01-29T04:30:32;102622.73;;;3.76;56.13
63306;BME280;50735;52.060;1.248;2023-01-29T04:33:10;102614.91;;;3.74;55.84
63306;BME280;50735;52.060;1.248;2023-01-29T04:35:52;102611.59;;;3.86;55.82
63306;BME280;50735;52.060;1.248;2023-01-29T04:38:27;102609.96;;;3.77;56.66
63306;BME280;50735;52.060;1.248;2023-01-29T04:41:04;102603.38;;;3.45;56.70
63306;BME280;50735;52.060;1.248;2023-01-29T04:43:40;102594.19;;;3.44;56.55
63306;BME280;50735;52.060;1.248;2023-01-29T04:46:14;102590.90;;;3.52;56.84
63306;BME280;50735;52.060;1.248;2023-01-29T04:48:58;102592.33;;;3.20;57.29
63306;BME280;50735;52.060;1.248;2023-01-29T04:51:33;102585.15;;;3.26;57.68
63306;BME280;50735;52.060;1.248;2023-01-29T04:54:07;102586.63;;;3.05;58.58
63306;BME280;50735;52.060;1.248;2023-01-29T04:56:39;102585.30;;;3.21;57.93
63306;BME280;50735;52.060;1.248;2023-01-29T04:59:10;102582.73;;;3.45;57.75
63306;BME280;50735;52.060;1.248;2023-01-29T05:01:40;102573.43;;;3.48;57.32
63306;BME280;50735;52.060;1.248;2023-01-29T05:04:10;102568.23;;;3.48;57.25
63306;BME280;50735;52.060;1.248;2023-01-29T05:06:39;102562.01;;;3.50;57.72
63306;BME280;50735;52.060;1.248;2023-01-29T05:09:08;102560.74;;;3.65;57.40
63306;BME280;50735;52.060;1.248;2023-01-29T05:11:35;102556.87;;;3.51;57.33
63306;BME280;50735;52.060;1.248;2023-01-29T05:14:05;102554.48;;;3.32;57.30
63306;BME280;50735;52.060;1.248;2023-01-29T05:16:36;102544.82;;;3.54;57.22
63306;BME280;50735;52.060;1.248;2023-01-29T05:19:04;102542.74;;;3.75;57.16
63306;BME280;50735;52.060;1.248;2023-01-29T05:21:31;102543.16;;;3.36;57.14
63306;BME280;50735;52.060;1.248;2023-01-29T05:24:08;102543.44;;;3.83;56.94
63306;BME280;50735;52.060;1.248;2023-01-29T05:26:35;102536.02;;;3.52;56.99
63306;BME280;50735;52.060;1.248;2023-01-29T05:29:02;102532.50;;;3.60;57.16
63306;BME280;50735;52.060;1.248;2023-01-29T05:31:29;102534.71;;;3.67;57.59
63306;BME280;50735;52.060;1.248;2023-01-29T05:33:55;102536.65;;;3.69;57.41
63306;BME280;50735;52.060;1.248;2023-01-29T05:36:22;102532.22;;;3.57;57.59
63306;BME280;50735;52.060;1.248;2023-01-29T05:38:49;102533.68;;;3.54;57.70
63306;BME280;50735;52.060;1.248;2023-01-29T05:41:16;102534.63;;;3.45;57.96
63306;BME280;50735;52.060;1.248;2023-01-29T05:43:43;102534.93;;;3.26;57.53
63306;BME280;50735;52.060;1.248;2023-01-29T05:46:10;102536.05;;;3.65;57.57
63306;BME280;50735;52.060;1.248;2023-01-29T05:48:36;102537.31;;;3.23;58.25
63306;BME280;50735;52.060;1.248;2023-01-29T05:51:04;102537.06;;;3.19;59.00
63306;BME280;50735;52.060;1.248;2023-01-29T05:53:31;102533.35;;;3.28;58.13
63306;BME280;50735;52.060;1.248;2023-01-29T05:56:00;102537.73;;;3.44;57.77
63306;BME280;50735;52.060;1.248;2023-01-29T05:58:27;102537.51;;;3.63;57.38
63306;BME280;50735;52.060;1.248;2023-01-29T06:00:55;102535.13;;;3.46;57.67
63306;BME280;50735;52.060;1.248;2023-01-29T06:03:22;102535.84;;;3.64;57.37
63306;BME280;50735;52.060;1.248;2023-01-29T06:05:49;102536.86;;;3.71;57.63
63306;BME280;50735;52.060;1.248;2023-01-29T06:08:16;102532.76;;;3.49;57.39
63306;BME280;50735;52.060;1.248;2023-01-29T06:10:43;102531.13;;;3.58;57.51
63306;BME280;50735;52.060;1.248;2023-01-29T06:13:09;102529.25;;;3.60;57.60
63306;BME280;50735;52.060;1.248;2023-01-29T06:15:38;102524.95;;;3.16;58.21
63306;BME280;50735;52.060;1.248;2023-01-29T06:18:05;102523.27;;;3.61;58.08
63306;BME280;50735;52.060;1.248;2023-01-29T06:20:32;102524.06;;;3.59;58.05
63306;BME280;50735;52.060;1.248;2023-01-29T06:22:59;102522.30;;;3.45;58.10
63306;BME280;50735;52.060;1.248;2023-01-29T06:25:26;102517.36;;;3.52;58.20
63306;BME280;50735;52.060;1.248;2023-01-29T06:27:53;102513.95;;;3.47;58.24
63306;BME280;50735;52.060;1.248;2023-01-29T06:30:20;102515.42;;;3.32;58.37
63306;BME280;50735;52.060;1.248;2023-01-29T06:32:47;102513.38;;;3.39;58.25
63306;BME280;50735;52.060;1.248;2023-01-29T06:35:14;102509.99;;;3.69;57.94
63306;BME280;50735;52.060;1.248;2023-01-29T06:37:40;102508.27;;;3.75;57.70
63306;BME280;50735;52.060;1.248;2023-01-29T06:40:08;102498.55;;;3.53;57.33
63306;BME280;50735;52.060;1.248;2023-01-29T06:42:35;102503.57;;;3.25;58.39
63306;BME280;50735;52.060;1.248;2023-01-29T06:45:01;102506.71;;;3.84;57.55
63306;BME280;50735;52.060;1.248;2023-01-29T06:47:28;102500.23;;;3.53;57.59
63306;BME280;50735;52.060;1.248;2023-01-29T06:49:55;102501.50;;;3.78;57.67
63306;BME280;50735;52.060;1.248;2023-01-29T06:52:22;102503.01;;;3.79;57.94
63306;BME280;50735;52.060;1.248;2023-01-29T06:54:49;102502.45;;;3.76;57.92
63306;BME280;50735;52.060;1.248;2023-01-29T06:57:15;102507.41;;;3.50;58.10
63306;BME280;50735;52.060;1.248;2023-01-29T06:59:42;102509.00;;;3.37;58.06
63306;BME280;50735;52.060;1.248;2023-01-29T07:02:09;102507.47;;;3.30;58.19
63306;BME280;50735;52.060;1.248;2023-01-29T07:04:36;102505.43;;;3.77;58.02
63306;BME280;50735;52.060;1.248;2023-01-29T07:07:03;102504.11;;;3.49;58.51
63306;BME280;50735;52.060;1.248;2023-01-29T07:09:31;102499.06;;;3.52;58.61
63306;BME280;50735;52.060;1.248;2023-01-29T07:11:58;102499.39;;;3.56;59.51
63306;BME280;50735;52.060;1.248;2023-01-29T07:14:25;102501.05;;;3.49;59.86
63306;BME280;50735;52.060;1.248;2023-01-29T07:16:52;102502.23;;;3.36;60.27
63306;BME280;50735;52.060;1.248;2023-01-29T07:19:19;102500.40;;;3.49;59.59
63306;BME280;50735;52.060;1.248;2023-01-29T07:21:46;102501.25;;;3.45;59.89
63306;BME280;50735;52.060;1.248;2023-01-29T07:24:13;102497.10;;;3.22;60.47
63306;BME280;50735;52.060;1.248;2023-01-29T07:26:39;102494.31;;;3.45;60.32
63306;BME280;50735;52.060;1.248;2023-01-29T07:29:06;102494.02;;;3.25;60.26
63306;BME280;50735;52.060;1.248;2023-01-29T07:31:33;102495.44;;;3.14;60.29
63306;BME280;50735;52.060;1.248;2023-01-29T07:33:59;102490.25;;;3.32;60.12
63306;BME280;50735;52.060;1.248;2023-01-29T07:36:26;102488.32;;;3.31;60.40
63306;BME280;50735;52.060;1.248;2023-01-29T07:38:53;102493.53;;;3.63;59.91
63306;BME280;50735;52.060;1.248;2023-01-29T07:41:20;102496.98;;;3.20;60.06
63306;BME280;50735;52.060;1.248;2023-01-29T07:43:47;102496.75;;;3.53;60.09
63306;BME280;50735;52.060;1.248;2023-01-29T07:46:14;102491.66;;;3.28;60.03
63306;BME280;50735;52.060;1.248;2023-01-29T07:48:41;102490.88;;;2.78;61.56
63306;BME280;50735;52.060;1.248;2023-01-29T07:51:08;102485.08;;;3.17;60.95
63306;BME280;50735;52.060;1.248;2023-01-29T07:53:34;102483.73;;;3.50;60.63
63306;BME280;50735;52.060;1.248;2023-01-29T07:56:02;102486.43;;;3.32;61.18
63306;BME280;50735;52.060;1.248;2023-01-29T07:58:29;102481.01;;;3.35;61.01
63306;BME280;50735;52.060;1.248;2023-01-29T08:00:55;102480.05;;;3.20;61.73
63306;BME280;50735;52.060;1.248;2023-01-29T08:03:21;102483.07;;;3.20;60.94
63306;BME280;50735;52.060;1.248;2023-01-29T08:05:48;102481.38;;;3.26;61.33
63306;BME280;50735;52.060;1.248;2023-01-29T08:08:15;102477.95;;;3.38;60.91
63306;BME280;50735;52.060;1.248;2023-01-29T08:10:42;102475.32;;;2.99;61.48
63306;BME280;50735;52.060;1.248;2023-01-29T08:13:09;102470.79;;;3.39;61.11
63306;BME280;50735;52.060;1.248;2023-01-29T08:15:36;102471.60;;;3.20;61.52
63306;BME280;50735;52.060;1.248;2023-01-29T08:18:03;102470.76;;;3.22;61.50
63306;BME280;50735;52.060;1.248;2023-01-29T08:20:30;102463.82;;;3.19;61.92
63306;BME280;50735;52.060;1.248;2023-01-29T08:22:59;102465.34;;;3.46;61.06
63306;BME280;50735;52.060;1.248;2023-01-29T08:25:27;102462.04;;;3.46;61.04
63306;BME280;50735;52.060;1.248;2023-01-29T08:27:55;102455.53;;;2.94;62.28
63306;BME280;50735;52.060;1.248;2023-01-29T08:30:22;102458.16;;;3.27;61.81
63306;BME280;50735;52.060;1.248;2023-01-29T08:32:49;102458.22;;;3.27;61.55
63306;BME280;50735;52.060;1.248;2023-01-29T08:35:16;102456.65;;;3.03;61.60
63306;BME280;50735;52.060;1.248;2023-01-29T08:37:42;102460.79;;;3.34;61.81
63306;BME280;50735;52.060;1.248;2023-01-29T08:40:10;102458.78;;;3.26;61.85
63306;BME280;50735;52.060;1.248;2023-01-29T08:42:37;102457.64;;;3.12;62.41
63306;BME280;50735;52.060;1.248;2023-01-29T08:45:05;102449.93;;;2.93;63.02
63306;BME280;50735;52.060;1.248;2023-01-29T08:47:32;102448.35;;;2.82;62.72
63306;BME280;50735;52.060;1.248;2023-01-29T08:49:59;102448.78;;;3.21;62.20
63306;BME280;50735;52.060;1.248;2023-01-29T08:52:26;102446.88;;;3.12;62.56
63306;BME280;50735;52.060;1.248;2023-01-29T08:54:52;102450.55;;;2.98;62.34
63306;BME280;50735;52.060;1.248;2023-01-29T08:57:19;102453.75;;;2.38;63.83
63306;BME280;50735;52.060;1.248;2023-01-29T08:59:46;102448.60;;;2.63;63.80
63306;BME280;50735;52.060;1.248;2023-01-29T09:02:13;102455.07;;;2.75;63.45
63306;BME280;50735;52.060;1.248;2023-01-29T09:04:40;102447.31;;;2.65;63.60
63306;BME280;50735;52.060;1.248;2023-01-29T09:07:07;102446.09;;;2.69;63.95
63306;BME280;50735;52.060;1.248;2023-01-29T09:09:33;102445.00;;;2.81;63.54
63306;BME280;50735;52.060;1.248;2023-01-29T09:12:00;102444.73;;;3.02;62.92
63306;BME280;50735;52.060;1.248;2023-01-29T09:14:27;102444.21;;;2.95;62.83
63306;BME280;50735;52.060;1.248;2023-01-29T09:16:54;102443.28;;;2.82;63.16
63306;BME280;50735;52.060;1.248;2023-01-29T09:19:20;102438.80;;;3.10;62.50
63306;BME280;50735;52.060;1.248;2023-01-29T09:21:47;102433.40;;;2.92;63.08
63306;BME280;50735;52.060;1.248;2023-01-29T09:24:14;102430.09;;;2.73;63.65
63306;BME280;50735;52.060;1.248;2023-01-29T09:26:42;102436.40;;;2.80;62.90
63306;BME280;50735;52.060;1.248;2023-01-29T09:29:09;102436.78;;;3.03;62.66
63306;BME280;50735;52.060;1.248;2023-01-29T09:31:36;102434.84;;;2.78;63.21
63306;BME280;50735;52.060;1.248;2023-01-29T09:34:02;102432.01;;;2.70;62.81
63306;BME280;50735;52.060;1.248;2023-01-29T09:36:29;102436.67;;;3.04;62.64
63306;BME280;50735;52.060;1.248;2023-01-29T09:38:56;102432.60;;;2.94;62.83
63306;BME280;50735;52.060;1.248;2023-01-29T09:41:32;102432.66;;;3.08;62.47
63306;BME280;50735;52.060;1.248;2023-01-29T09:44:11;102434.26;;;3.03;61.80
63306;BME280;50735;52.060;1.248;2023-01-29T09:46:42;102422.55;;;3.10;61.82
63306;BME280;50735;52.060;1.248;2023-01-29T09:49:13;102417.73;;;3.37;61.27
63306;BME280;50735;52.060;1.248;2023-01-29T09:51:45;102420.66;;;3.35;61.82
63306;BME280;50735;52.060;1.248;2023-01-29T09:54:18;102411.80;;;3.31;61.44
63306;BME280;50735;52.060;1.248;2023-01-29T09:56:51;102412.59;;;3.20;61.12
63306;BME280;50735;52.060;1.248;2023-01-29T09:59:21;102411.22;;;3.26;61.13
63306;BME280;50735;52.060;1.248;2023-01-29T10:01:57;102403.74;;;2.90;61.60
63306;BME280;50735;52.060;1.248;2023-01-29T10:04:38;102404.16;;;3.35;61.69
63306;BME280;50735;52.060;1.248;2023-01-29T10:07:23;102402.26;;;3.08;61.56
63306;BME280;50735;52.060;1.248;2023-01-29T10:10:04;102400.72;;;2.95;61.75
63306;BME280;50735;52.060;1.248;2023-01-29T10:12:44;102399.02;;;3.10;61.34
63306;BME280;50735;52.060;1.248;2023-01-29T10:15:22;102402.88;;;3.22;61.22
63306;BME280;50735;52.060;1.248;2023-01-29T10:18:02;102394.65;;;3.06;61.23
63306;BME280;50735;52.060;1.248;2023-01-29T10:20:42;102395.10;;;3.09;61.23
63306;BME280;50735;52.060;1.248;2023-01-29T10:23:19;102392.26;;;3.53;60.41
63306;BME280;50735;52.060;1.248;2023-01-29T10:25:48;102392.14;;;3.65;60.57
63306;BME280;50735;52.060;1.248;2023-01-29T10:28:17;102394.99;;;3.46;60.51
63306;BME280;50735;52.060;1.248;2023-01-29T10:30:48;102388.37;;;3.73;60.07
63306;BME280;50735;52.060;1.248;2023-01-29T10:33:20;102389.05;;;3.46;60.24
63306;BME280;50735;52.060;1.248;2023-01-29T10:35:53;102387.01;;;3.68;60.17
63306;BME280;50735;52.060;1.248;2023-01-29T10:38:30;102384.57;;;3.77;60.13
63306;BME280;50735;52.060;1.248;2023-01-29T10:41:13;102377.27;;;3.47;60.37
63306;BME280;50735;52.060;1.248;2023-01-29T10:43:53;102377.39;;;3.86;60.01
63306;BME280;50735;52.060;1.248;2023-01-29T10:46:34;102376.13;;;3.94;59.69
63306;BME280;50735;52.060;1.248;2023-01-29T10:49:16;102377.68;;;3.86;59.73
63306;BME280;50735;52.060;1.248;2023-01-29T10:51:59;102370.81;;;3.63;59.24
63306;BME280;50735;52.060;1.248;2023-01-29T10:54:40;102362.13;;;3.80;60.11
63306;BME280;50735;52.060;1.248;2023-01-29T10:57:15;102354.07;;;3.83;59.95
63306;BME280;50735;52.060;1.248;2023-01-29T10:59:54;102350.18;;;4.00;59.06
63306;BME280;50735;52.060;1.248;2023-01-29T11:02:25;102346.40;;;4.42;58.78
63306;BME280;50735;52.060;1.248;2023-01-29T11:04:53;102342.95;;;4.24;58.69
63306;BME280;50735;52.060;1.248;2023-01-29T11:07:21;102336.09;;;4.62;58.39
63306;BME280;50735;52.060;1.248;2023-01-29T11:09:53;102331.26;;;4.39;58.97
63306;BME280;50735;52.060;1.248;2023-01-29T11:12:22;102325.95;;;4.51;58.83
63306;BME280;50735;52.060;1.248;2023-01-29T11:14:54;102315.85;;;4.28;59.20
63306;BME280;50735;52.060;1.248;2023-01-29T11:17:24;102305.46;;;4.65;58.49
63306;BME280;50735;52.060;1.248;2023-01-29T11:19:53;102303.78;;;4.22;59.41
63306;BME280;50735;52.060;1.248;2023-01-29T11:22:21;102297.65;;;4.07;59.13
63306;BME280;50735;52.060;1.248;2023-01-29T11:25:06;102297.30;;;4.02;58.98
63306;BME280;50735;52.060;1.248;2023-01-29T11:27:40;102290.58;;;4.48;58.92
63306;BME280;50735;52.060;1.248;2023-01-29T11:30:14;102281.11;;;4.61;58.63
63306;BME280;50735;52.060;1.248;2023-01-29T11:32:42;102274.02;;;4.93;58.23
63306;BME280;50735;52.060;1.248;2023-01-29T11:35:20;102277.58;;;4.82;57.72
63306;BME280;50735;52.060;1.248;2023-01-29T11:37:48;102266.15;;;4.86;57.71
63306;BME280;50735;52.060;1.248;2023-01-29T11:40:35;102273.44;;;4.53;58.44
63306;BME280;50735;52.060;1.248;2023-01-29T11:43:12;102264.18;;;4.48;59.02
63306;BME280;50735;52.060;1.248;2023-01-29T11:45:43;102262.20;;;4.69;58.73
63306;BME280;50735;52.060;1.248;2023-01-29T11:48:13;102253.68;;;4.73;58.60
63306;BME280;50735;52.060;1.248;2023-01-29T11:50:42;102254.87;;;4.61;59.11
63306;BME280;50735;52.060;1.248;2023-01-29T11:53:22;102245.24;;;4.92;58.67
63306;BME280;50735;52.060;1.248;2023-01-29T11:55:50;102242.85;;;4.28;59.60
63306;BME280;50735;52.060;1.248;2023-01-29T11:58:26;102245.88;;;4.84;58.55
63306;BME280;50735;52.060;1.248;2023-01-29T12:00:56;102242.40;;;4.63;59.29
63306;BME280;50735;52.060;1.248;2023-01-29T12:03:29;102232.10;;;4.36;59.79
63306;BME280;50735;52.060;1.248;2023-01-29T12:06:00;102230.78;;;4.64;59.02
63306;BME280;50735;52.060;1.248;2023-01-29T12:08:33;102221.68;;;4.70;58.97
63306;BME280;50735;52.060;1.248;2023-01-29T12:11:11;102215.98;;;4.80;58.44
63306;BME280;50735;52.060;1.248;2023-01-29T12:13:38;102210.07;;;4.82;58.87
63306;BME280;50735;52.060;1.248;2023-01-29T12:16:17;102209.69;;;4.70;58.92
63306;BME280;50735;52.060;1.248;2023-01-29T12:18:50;102198.35;;;4.77;58.81
63306;BME280;50735;52.060;1.248;2023-01-29T12:21:25;102192.46;;;5.20;58.20
63306;BME280;50735;52.060;1.248;2023-01-29T12:24:00;102184.49;;;5.41;57.51
63306;BME280;50735;52.060;1.248;2023-01-29T12:26:32;102178.69;;;5.46;57.53
63306;BME280;50735;52.060;1.248;2023-01-29T12:29:14;102173.53;;;5.56;57.40
63306;BME280;50735;52.060;1.248;2023-01-29T12:31:47;102175.76;;;5.33;57.55
63306;BME280;50735;52.060;1.248;2023-01-29T12:34:19;102177.08;;;4.75;58.52
63306;BME280;50735;52.060;1.248;2023-01-29T12:36:52;102160.89;;;4.86;58.52
63306;BME280;50735;52.060;1.248;2023-01-29T12:39:21;102163.99;;;4.82;59.05
63306;BME280;50735;52.060;1.248;2023-01-29T12:41:52;102154.07;;;4.62;59.53
63306;BME280;50735;52.060;1.248;2023-01-29T12:44:22;102150.68;;;4.73;59.36
63306;BME280;50735;52.060;1.248;2023-01-29T12:46:54;102147.85;;;4.71;59.30
63306;BME280;50735;52.060;1.248;2023-01-29T12:49:24;102134.69;;;4.79;59.37
63306;BME280;50735;52.060;1.248;2023-01-29T12:51:57;102130.36;;;4.48;60.16
63306;BME280;50735;52.060;1.248;2023-01-29T12:54:32;102121.69;;;4.79;59.68
63306;BME280;50735;52.060;1.248;2023-01-29T12:57:02;102115.34;;;4.93;58.64
63306;BME280;50735;52.060;1.248;2023-01-29T12:59:39;102116.58;;;5.10;58.80
63306;BME280;50735;52.060;1.248;2023-01-29T13:02:17;102116.59;;;4.60;59.50
63306;BME280;50735;52.060;1.248;2023-01-29T13:04:54;102111.22;;;4.63;60.15
63306;BME280;50735;52.060;1.248;2023-01-29T13:07:27;102102.39;;;4.39;60.29
63306;BME280;50735;52.060;1.248;2023-01-29T13:10:02;102102.19;;;4.44;60.64
63306;BME280;50735;52.060;1.248;2023-01-29T13:12:32;102089.16;;;4.75;60.08
63306;BME280;50735;52.060;1.248;2023-01-29T13:15:04;102080.34;;;4.62;60.43
63306;BME280;50735;52.060;1.248;2023-01-29T13:17:36;102071.25;;;4.40;60.99